sensor_id;sensor_type;location;lat;lon;timestamp;P1;durP1;ratioP1;P2;durP2;ratioP2
52170;SDS011;38689;47.552;18.820;2023-06-01T00:00:26;6.90;;;3.50;;
52170;SDS011;38689;47.552;18.820;2023-06-01T00:02:52;5.43;;;3.28;;
52170;SDS011;38689;47.552;18.820;2023-06-01T00:05:18;4.25;;;2.87;;
52170;SDS011;38689;47.552;18.820;2023-06-01T00:07:44;4.55;;;3.00;;
52170;SDS011;38689;47.552;18.820;2023-06-01T00:10:10;5.05;;;3.00;;
52170;SDS011;38689;47.552;18.820;2023-06-01T00:12:36;4.78;;;3.08;;
52170;SDS011;38689;47.552;18.820;2023-06-01T00:15:02;5.93;;;3.22;;
52170;SDS011;38689;47.552;18.820;2023-06-01T00:17:29;6.00;;;3.17;;
52170;SDS011;38689;47.552;18.820;2023-06-01T00:19:56;5.82;;;3.35;;
52170;SDS011;38689;47.552;18.820;2023-06-01T00:22:22;5.35;;;3.05;;
52170;SDS011;38689;47.552;18.820;2023-06-01T00:24:50;6.60;;;3.25;;
52170;SDS011;38689;47.552;18.820;2023-06-01T00:27:16;5.78;;;3.17;;
52170;SDS011;38689;47.552;18.820;2023-06-01T00:30:03;6.15;;;3.10;;
52170;SDS011;38689;47.552;18.820;2023-06-01T00:32:30;5.25;;;3.47;;
52170;SDS011;38689;47.552;18.820;2023-06-01T00:34:56;4.82;;;3.35;;
52170;SDS011;38689;47.552;18.820;2023-06-01T00:37:22;5.03;;;3.33;;
52170;SDS011;38689;47.552;18.820;2023-06-01T00:39:48;5.72;;;3.25;;
52170;SDS011;38689;47.552;18.820;2023-06-01T00:42:14;6.45;;;3.55;;
52170;SDS011;38689;47.552;18.820;2023-06-01T00:44:40;5.40;;;3.60;;
52170;SDS011;38689;47.552;18.820;2023-06-01T00:47:06;4.45;;;3.10;;
52170;SDS011;38689;47.552;18.820;2023-06-01T00:49:33;5.12;;;3.25;;
52170;SDS011;38689;47.552;18.820;2023-06-01T00:51:59;6.50;;;3.53;;
52170;SDS011;38689;47.552;18.820;2023-06-01T00:54:26;7.00;;;3.95;;
52170;SDS011;38689;47.552;18.820;2023-06-01T00:56:52;4.40;;;3.17;;
52170;SDS011;38689;47.552;18.820;2023-06-01T00:59:18;6.55;;;3.65;;
52170;SDS011;38689;47.552;18.820;2023-06-01T01:01:44;5.70;;;3.50;;
52170;SDS011;38689;47.552;18.820;2023-06-01T01:04:10;7.40;;;3.35;;
52170;SDS011;38689;47.552;18.820;2023-06-01T01:06:43;4.95;;;3.30;;
52170;SDS011;38689;47.552;18.820;2023-06-01T01:12:27;5.45;;;3.30;;
52170;SDS011;38689;47.552;18.820;2023-06-01T01:17:39;6.87;;;3.75;;
52170;SDS011;38689;47.552;18.820;2023-06-01T01:20:09;7.28;;;3.40;;
52170;SDS011;38689;47.552;18.820;2023-06-01T01:22:54;5.78;;;3.20;;
52170;SDS011;38689;47.552;18.820;2023-06-01T01:30:38;6.78;;;3.25;;
52170;SDS011;38689;47.552;18.820;2023-06-01T01:33:07;6.43;;;3.37;;
52170;SDS011;38689;47.552;18.820;2023-06-01T01:35:33;5.85;;;3.40;;
52170;SDS011;38689;47.552;18.820;2023-06-01T01:37:59;6.28;;;3.40;;
52170;SDS011;38689;47.552;18.820;2023-06-01T01:40:27;5.57;;;3.33;;
52170;SDS011;38689;47.552;18.820;2023-06-01T01:42:53;5.53;;;3.40;;
52170;SDS011;38689;47.552;18.820;2023-06-01T01:45:20;5.28;;;3.45;;
52170;SDS011;38689;47.552;18.820;2023-06-01T01:48:06;6.78;;;3.00;;
52170;SDS011;38689;47.552;18.820;2023-06-01T01:50:46;6.22;;;3.03;;
52170;SDS011;38689;47.552;18.820;2023-06-01T01:53:17;6.20;;;3.22;;
52170;SDS011;38689;47.552;18.820;2023-06-01T01:55:43;6.22;;;3.50;;
52170;SDS011;38689;47.552;18.820;2023-06-01T01:58:14;6.00;;;3.40;;
52170;SDS011;38689;47.552;18.820;2023-06-01T02:00:41;5.12;;;3.20;;
52170;SDS011;38689;47.552;18.820;2023-06-01T02:03:16;6.00;;;3.53;;
52170;SDS011;38689;47.552;18.820;2023-06-01T02:05:43;5.10;;;3.22;;
52170;SDS011;38689;47.552;18.820;2023-06-01T02:08:09;7.00;;;3.62;;
52170;SDS011;38689;47.552;18.820;2023-06-01T02:10:36;5.45;;;3.15;;
52170;SDS011;38689;47.552;18.820;2023-06-01T02:13:03;6.05;;;3.75;;
52170;SDS011;38689;47.552;18.820;2023-06-01T02:15:29;5.12;;;3.60;;
52170;SDS011;38689;47.552;18.820;2023-06-01T02:17:55;4.82;;;3.30;;
52170;SDS011;38689;47.552;18.820;2023-06-01T02:20:22;6.55;;;3.33;;
52170;SDS011;38689;47.552;18.820;2023-06-01T02:22:48;4.15;;;3.17;;
52170;SDS011;38689;47.552;18.820;2023-06-01T02:25:14;7.12;;;3.40;;
52170;SDS011;38689;47.552;18.820;2023-06-01T02:27:40;5.28;;;2.97;;
52170;SDS011;38689;47.552;18.820;2023-06-01T02:30:06;6.03;;;3.40;;
52170;SDS011;38689;47.552;18.820;2023-06-01T02:32:33;5.43;;;2.90;;
52170;SDS011;38689;47.552;18.820;2023-06-01T02:35:00;7.47;;;3.25;;
52170;SDS011;38689;47.552;18.820;2023-06-01T02:37:26;5.40;;;3.75;;
52170;SDS011;38689;47.552;18.820;2023-06-01T02:39:52;4.62;;;3.05;;
52170;SDS011;38689;47.552;18.820;2023-06-01T02:42:18;5.22;;;3.35;;
52170;SDS011;38689;47.552;18.820;2023-06-01T02:44:44;4.87;;;3.22;;
52170;SDS011;38689;47.552;18.820;2023-06-01T02:47:10;7.60;;;3.67;;
52170;SDS011;38689;47.552;18.820;2023-06-01T02:49:36;6.50;;;3.30;;
52170;SDS011;38689;47.552;18.820;2023-06-01T02:52:03;5.47;;;3.25;;
52170;SDS011;38689;47.552;18.820;2023-06-01T02:54:29;5.62;;;3.30;;
52170;SDS011;38689;47.552;18.820;2023-06-01T02:56:55;7.82;;;3.35;;
52170;SDS011;38689;47.552;18.820;2023-06-01T02:59:23;6.20;;;3.20;;
52170;SDS011;38689;47.552;18.820;2023-06-01T03:01:50;6.30;;;3.37;;
52170;SDS011;38689;47.552;18.820;2023-06-01T03:04:16;6.20;;;3.28;;
52170;SDS011;38689;47.552;18.820;2023-06-01T03:06:43;5.57;;;3.42;;
52170;SDS011;38689;47.552;18.820;2023-06-01T03:09:13;5.50;;;3.30;;
52170;SDS011;38689;47.552;18.820;2023-06-01T03:11:42;5.07;;;3.40;;
52170;SDS011;38689;47.552;18.820;2023-06-01T03:14:08;5.37;;;2.87;;
52170;SDS011;38689;47.552;18.820;2023-06-01T03:16:35;4.45;;;2.97;;
52170;SDS011;38689;47.552;18.820;2023-06-01T03:19:01;5.57;;;3.20;;
52170;SDS011;38689;47.552;18.820;2023-06-01T03:21:27;7.43;;;3.58;;
52170;SDS011;38689;47.552;18.820;2023-06-01T03:23:54;4.87;;;3.20;;
52170;SDS011;38689;47.552;18.820;2023-06-01T03:26:20;5.65;;;3.33;;
52170;SDS011;38689;47.552;18.820;2023-06-01T03:28:47;5.78;;;3.20;;
52170;SDS011;38689;47.552;18.820;2023-06-01T03:31:13;5.32;;;3.25;;
52170;SDS011;38689;47.552;18.820;2023-06-01T03:33:39;4.85;;;3.22;;
52170;SDS011;38689;47.552;18.820;2023-06-01T03:36:05;8.82;;;3.28;;
52170;SDS011;38689;47.552;18.820;2023-06-01T03:38:32;5.15;;;3.20;;
52170;SDS011;38689;47.552;18.820;2023-06-01T03:40:59;6.40;;;3.10;;
52170;SDS011;38689;47.552;18.820;2023-06-01T03:43:26;6.20;;;3.20;;
52170;SDS011;38689;47.552;18.820;2023-06-01T03:45:53;6.43;;;3.00;;
52170;SDS011;38689;47.552;18.820;2023-06-01T03:48:19;4.57;;;3.00;;
52170;SDS011;38689;47.552;18.820;2023-06-01T03:50:45;5.82;;;3.25;;
52170;SDS011;38689;47.552;18.820;2023-06-01T03:53:11;5.45;;;3.03;;
52170;SDS011;38689;47.552;18.820;2023-06-01T03:55:37;5.80;;;3.30;;
52170;SDS011;38689;47.552;18.820;2023-06-01T03:58:03;5.87;;;2.65;;
52170;SDS011;38689;47.552;18.820;2023-06-01T04:00:30;6.95;;;3.12;;
52170;SDS011;38689;47.552;18.820;2023-06-01T04:02:57;7.45;;;2.83;;
52170;SDS011;38689;47.552;18.820;2023-06-01T04:05:24;6.82;;;2.87;;
52170;SDS011;38689;47.552;18.820;2023-06-01T04:07:53;5.15;;;2.80;;
52170;SDS011;38689;47.552;18.820;2023-06-01T04:10:20;5.95;;;3.37;;
52170;SDS011;38689;47.552;18.820;2023-06-01T04:12:47;5.35;;;3.28;;
52170;SDS011;38689;47.552;18.820;2023-06-01T04:15:17;6.62;;;3.35;;
52170;SDS011;38689;47.552;18.820;2023-06-01T04:17:44;6.43;;;3.28;;
52170;SDS011;38689;47.552;18.820;2023-06-01T04:20:11;6.05;;;2.90;;
52170;SDS011;38689;47.552;18.820;2023-06-01T04:22:38;6.53;;;3.17;;
52170;SDS011;38689;47.552;18.820;2023-06-01T04:25:05;5.45;;;3.30;;
52170;SDS011;38689;47.552;18.820;2023-06-01T04:27:34;7.57;;;3.33;;
52170;SDS011;38689;47.552;18.820;2023-06-01T04:30:04;8.90;;;3.62;;
52170;SDS011;38689;47.552;18.820;2023-06-01T04:32:36;8.00;;;3.40;;
52170;SDS011;38689;47.552;18.820;2023-06-01T04:35:06;4.57;;;3.22;;
52170;SDS011;38689;47.552;18.820;2023-06-01T04:37:33;7.12;;;3.20;;
52170;SDS011;38689;47.552;18.820;2023-06-01T04:40:03;7.43;;;3.20;;
52170;SDS011;38689;47.552;18.820;2023-06-01T04:42:33;9.02;;;3.35;;
52170;SDS011;38689;47.552;18.820;2023-06-01T04:45:00;7.45;;;3.42;;
52170;SDS011;38689;47.552;18.820;2023-06-01T04:47:30;6.12;;;3.08;;
52170;SDS011;38689;47.552;18.820;2023-06-01T04:49:57;6.37;;;3.15;;
52170;SDS011;38689;47.552;18.820;2023-06-01T04:52:24;9.80;;;3.42;;
52170;SDS011;38689;47.552;18.820;2023-06-01T04:54:50;7.78;;;3.42;;
52170;SDS011;38689;47.552;18.820;2023-06-01T04:57:16;9.60;;;3.50;;
52170;SDS011;38689;47.552;18.820;2023-06-01T04:59:42;9.77;;;3.58;;
52170;SDS011;38689;47.552;18.820;2023-06-01T05:02:08;9.48;;;3.10;;
52170;SDS011;38689;47.552;18.820;2023-06-01T05:04:34;7.70;;;3.40;;
52170;SDS011;38689;47.552;18.820;2023-06-01T05:07:00;5.97;;;3.00;;
52170;SDS011;38689;47.552;18.820;2023-06-01T05:09:26;9.70;;;3.53;;
52170;SDS011;38689;47.552;18.820;2023-06-01T05:11:52;8.85;;;3.15;;
52170;SDS011;38689;47.552;18.820;2023-06-01T05:14:19;9.95;;;3.30;;
52170;SDS011;38689;47.552;18.820;2023-06-01T05:16:45;7.35;;;3.25;;
52170;SDS011;38689;47.552;18.820;2023-06-01T05:19:11;6.93;;;3.40;;
52170;SDS011;38689;47.552;18.820;2023-06-01T05:21:38;11.82;;;3.37;;
52170;SDS011;38689;47.552;18.820;2023-06-01T05:24:06;7.60;;;3.30;;
52170;SDS011;38689;47.552;18.820;2023-06-01T05:26:32;6.72;;;3.08;;
52170;SDS011;38689;47.552;18.820;2023-06-01T05:28:58;7.60;;;2.72;;
52170;SDS011;38689;47.552;18.820;2023-06-01T05:31:24;5.68;;;2.67;;
52170;SDS011;38689;47.552;18.820;2023-06-01T05:33:50;5.40;;;3.10;;
52170;SDS011;38689;47.552;18.820;2023-06-01T05:36:17;4.55;;;2.75;;
52170;SDS011;38689;47.552;18.820;2023-06-01T05:38:43;5.87;;;2.80;;
52170;SDS011;38689;47.552;18.820;2023-06-01T05:41:09;4.93;;;2.67;;
52170;SDS011;38689;47.552;18.820;2023-06-01T05:43:35;4.03;;;2.53;;
52170;SDS011;38689;47.552;18.820;2023-06-01T05:46:02;5.50;;;2.78;;
52170;SDS011;38689;47.552;18.820;2023-06-01T05:48:29;5.55;;;2.78;;
52170;SDS011;38689;47.552;18.820;2023-06-01T05:50:55;7.80;;;2.90;;
52170;SDS011;38689;47.552;18.820;2023-06-01T05:53:21;7.60;;;2.95;;
52170;SDS011;38689;47.552;18.820;2023-06-01T05:55:53;6.75;;;2.78;;
52170;SDS011;38689;47.552;18.820;2023-06-01T05:58:19;6.90;;;3.15;;
52170;SDS011;38689;47.552;18.820;2023-06-01T06:00:46;5.62;;;2.70;;
52170;SDS011;38689;47.552;18.820;2023-06-01T06:03:12;5.10;;;2.75;;
52170;SDS011;38689;47.552;18.820;2023-06-01T06:05:42;6.97;;;2.92;;
52170;SDS011;38689;47.552;18.820;2023-06-01T06:10:38;4.87;;;2.53;;
52170;SDS011;38689;47.552;18.820;2023-06-01T06:13:04;4.87;;;2.40;;
52170;SDS011;38689;47.552;18.820;2023-06-01T06:15:33;6.03;;;2.45;;
52170;SDS011;38689;47.552;18.820;2023-06-01T06:17:59;4.55;;;2.60;;
52170;SDS011;38689;47.552;18.820;2023-06-01T06:20:27;6.37;;;2.50;;
52170;SDS011;38689;47.552;18.820;2023-06-01T06:22:54;5.10;;;2.95;;
52170;SDS011;38689;47.552;18.820;2023-06-01T06:25:20;5.57;;;2.70;;
52170;SDS011;38689;47.552;18.820;2023-06-01T06:27:47;6.60;;;2.80;;
52170;SDS011;38689;47.552;18.820;2023-06-01T06:30:13;4.55;;;2.60;;
52170;SDS011;38689;47.552;18.820;2023-06-01T06:32:39;4.05;;;2.60;;
52170;SDS011;38689;47.552;18.820;2023-06-01T06:35:05;5.75;;;2.53;;
52170;SDS011;38689;47.552;18.820;2023-06-01T06:37:32;5.62;;;2.55;;
52170;SDS011;38689;47.552;18.820;2023-06-01T06:39:58;4.57;;;2.60;;
52170;SDS011;38689;47.552;18.820;2023-06-01T06:42:24;5.68;;;2.60;;
52170;SDS011;38689;47.552;18.820;2023-06-01T06:44:51;5.72;;;2.65;;
52170;SDS011;38689;47.552;18.820;2023-06-01T06:47:17;5.72;;;2.47;;
52170;SDS011;38689;47.552;18.820;2023-06-01T06:49:45;4.62;;;2.65;;
52170;SDS011;38689;47.552;18.820;2023-06-01T06:52:12;7.18;;;2.58;;
52170;SDS011;38689;47.552;18.820;2023-06-01T06:54:38;3.35;;;2.37;;
52170;SDS011;38689;47.552;18.820;2023-06-01T06:57:06;4.37;;;2.37;;
52170;SDS011;38689;47.552;18.820;2023-06-01T06:59:33;5.00;;;2.53;;
52170;SDS011;38689;47.552;18.820;2023-06-01T07:01:59;7.12;;;2.80;;
52170;SDS011;38689;47.552;18.820;2023-06-01T07:04:27;5.18;;;2.40;;
52170;SDS011;38689;47.552;18.820;2023-06-01T07:06:53;7.35;;;2.42;;
52170;SDS011;38689;47.552;18.820;2023-06-01T07:09:19;3.92;;;2.58;;
52170;SDS011;38689;47.552;18.820;2023-06-01T07:11:45;6.05;;;2.40;;
52170;SDS011;38689;47.552;18.820;2023-06-01T07:14:13;5.53;;;2.60;;
52170;SDS011;38689;47.552;18.820;2023-06-01T07:16:40;3.92;;;2.45;;
52170;SDS011;38689;47.552;18.820;2023-06-01T07:19:07;5.28;;;2.35;;
52170;SDS011;38689;47.552;18.820;2023-06-01T07:21:33;6.37;;;2.70;;
52170;SDS011;38689;47.552;18.820;2023-06-01T07:23:59;5.35;;;2.10;;
52170;SDS011;38689;47.552;18.820;2023-06-01T07:26:26;5.32;;;2.45;;
52170;SDS011;38689;47.552;18.820;2023-06-01T07:28:54;8.90;;;2.78;;
52170;SDS011;38689;47.552;18.820;2023-06-01T07:31:22;6.07;;;2.60;;
52170;SDS011;38689;47.552;18.820;2023-06-01T07:33:48;4.53;;;2.12;;
52170;SDS011;38689;47.552;18.820;2023-06-01T07:36:17;4.72;;;2.10;;
52170;SDS011;38689;47.552;18.820;2023-06-01T07:38:44;6.53;;;2.45;;
52170;SDS011;38689;47.552;18.820;2023-06-01T07:41:11;5.90;;;2.70;;
52170;SDS011;38689;47.552;18.820;2023-06-01T07:43:37;4.85;;;2.37;;
52170;SDS011;38689;47.552;18.820;2023-06-01T07:46:04;4.68;;;1.75;;
52170;SDS011;38689;47.552;18.820;2023-06-01T07:48:30;4.90;;;2.00;;
52170;SDS011;38689;47.552;18.820;2023-06-01T07:51:02;4.00;;;1.77;;
52170;SDS011;38689;47.552;18.820;2023-06-01T07:53:31;3.65;;;1.90;;
52170;SDS011;38689;47.552;18.820;2023-06-01T07:55:58;3.80;;;1.90;;
52170;SDS011;38689;47.552;18.820;2023-06-01T07:58:24;5.57;;;2.58;;
52170;SDS011;38689;47.552;18.820;2023-06-01T08:00:50;2.72;;;1.75;;
52170;SDS011;38689;47.552;18.820;2023-06-01T08:03:18;5.45;;;1.90;;
52170;SDS011;38689;47.552;18.820;2023-06-01T08:05:46;4.65;;;1.80;;
52170;SDS011;38689;47.552;18.820;2023-06-01T08:08:12;4.32;;;2.30;;
52170;SDS011;38689;47.552;18.820;2023-06-01T08:10:38;4.85;;;2.30;;
52170;SDS011;38689;47.552;18.820;2023-06-01T08:13:05;4.62;;;2.83;;
52170;SDS011;38689;47.552;18.820;2023-06-01T08:15:33;4.70;;;2.30;;
52170;SDS011;38689;47.552;18.820;2023-06-01T08:18:02;7.03;;;2.75;;
52170;SDS011;38689;47.552;18.820;2023-06-01T08:20:31;7.30;;;2.80;;
52170;SDS011;38689;47.552;18.820;2023-06-01T08:22:59;6.75;;;2.55;;
52170;SDS011;38689;47.552;18.820;2023-06-01T08:25:25;4.40;;;2.50;;
52170;SDS011;38689;47.552;18.820;2023-06-01T08:27:51;5.97;;;2.55;;
52170;SDS011;38689;47.552;18.820;2023-06-01T08:30:18;5.25;;;2.50;;
52170;SDS011;38689;47.552;18.820;2023-06-01T08:32:44;4.68;;;2.67;;
52170;SDS011;38689;47.552;18.820;2023-06-01T08:35:10;7.45;;;2.65;;
52170;SDS011;38689;47.552;18.820;2023-06-01T08:37:36;5.43;;;2.65;;
52170;SDS011;38689;47.552;18.820;2023-06-01T08:40:02;8.02;;;2.67;;
52170;SDS011;38689;47.552;18.820;2023-06-01T08:42:56;4.62;;;2.58;;
52170;SDS011;38689;47.552;18.820;2023-06-01T08:45:41;5.15;;;2.25;;
52170;SDS011;38689;47.552;18.820;2023-06-01T08:48:09;4.97;;;2.60;;
52170;SDS011;38689;47.552;18.820;2023-06-01T08:50:43;4.78;;;2.55;;
52170;SDS011;38689;47.552;18.820;2023-06-01T08:53:14;4.07;;;2.47;;
52170;SDS011;38689;47.552;18.820;2023-06-01T08:55:47;5.37;;;2.90;;
52170;SDS011;38689;47.552;18.820;2023-06-01T08:58:16;6.37;;;2.50;;
52170;SDS011;38689;47.552;18.820;2023-06-01T09:00:42;8.23;;;2.90;;
52170;SDS011;38689;47.552;18.820;2023-06-01T09:03:08;4.35;;;2.30;;
52170;SDS011;38689;47.552;18.820;2023-06-01T09:05:35;10.20;;;2.60;;
52170;SDS011;38689;47.552;18.820;2023-06-01T09:08:02;6.18;;;2.37;;
52170;SDS011;38689;47.552;18.820;2023-06-01T09:10:28;5.97;;;2.10;;
52170;SDS011;38689;47.552;18.820;2023-06-01T09:12:54;4.50;;;2.30;;
52170;SDS011;38689;47.552;18.820;2023-06-01T09:15:21;6.30;;;2.60;;
52170;SDS011;38689;47.552;18.820;2023-06-01T09:17:48;6.15;;;2.33;;
52170;SDS011;38689;47.552;18.820;2023-06-01T09:20:25;4.85;;;2.37;;
52170;SDS011;38689;47.552;18.820;2023-06-01T09:22:52;3.35;;;2.25;;
52170;SDS011;38689;47.552;18.820;2023-06-01T09:25:29;4.68;;;2.90;;
52170;SDS011;38689;47.552;18.820;2023-06-01T09:28:00;4.55;;;2.70;;
52170;SDS011;38689;47.552;18.820;2023-06-01T09:30:40;8.35;;;2.85;;
52170;SDS011;38689;47.552;18.820;2023-06-01T09:33:15;6.35;;;2.80;;
52170;SDS011;38689;47.552;18.820;2023-06-01T09:35:43;3.87;;;2.55;;
52170;SDS011;38689;47.552;18.820;2023-06-01T09:38:10;6.00;;;2.62;;
52170;SDS011;38689;47.552;18.820;2023-06-01T09:40:38;5.18;;;2.67;;
52170;SDS011;38689;47.552;18.820;2023-06-01T09:43:21;5.25;;;2.72;;
52170;SDS011;38689;47.552;18.820;2023-06-01T09:46:03;6.80;;;3.05;;
52170;SDS011;38689;47.552;18.820;2023-06-01T09:48:33;6.10;;;3.00;;
52170;SDS011;38689;47.552;18.820;2023-06-01T09:50:59;4.53;;;2.70;;
52170;SDS011;38689;47.552;18.820;2023-06-01T09:53:25;4.75;;;2.90;;
52170;SDS011;38689;47.552;18.820;2023-06-01T09:55:59;12.02;;;2.95;;
52170;SDS011;38689;47.552;18.820;2023-06-01T09:58:26;10.20;;;3.03;;
52170;SDS011;38689;47.552;18.820;2023-06-01T10:00:53;8.27;;;3.08;;
52170;SDS011;38689;47.552;18.820;2023-06-01T10:03:20;6.30;;;2.62;;
52170;SDS011;38689;47.552;18.820;2023-06-01T10:05:48;4.87;;;2.75;;
52170;SDS011;38689;47.552;18.820;2023-06-01T10:08:15;4.75;;;2.50;;
52170;SDS011;38689;47.552;18.820;2023-06-01T10:10:45;4.20;;;2.37;;
52170;SDS011;38689;47.552;18.820;2023-06-01T10:13:13;6.55;;;2.85;;
52170;SDS011;38689;47.552;18.820;2023-06-01T10:15:40;4.57;;;2.42;;
52170;SDS011;38689;47.552;18.820;2023-06-01T10:18:06;4.30;;;2.35;;
52170;SDS011;38689;47.552;18.820;2023-06-01T10:20:33;5.90;;;2.83;;
52170;SDS011;38689;47.552;18.820;2023-06-01T10:23:03;4.53;;;2.33;;
52170;SDS011;38689;47.552;18.820;2023-06-01T10:25:30;4.80;;;2.40;;
52170;SDS011;38689;47.552;18.820;2023-06-01T10:28:04;5.25;;;2.28;;
52170;SDS011;38689;47.552;18.820;2023-06-01T10:30:33;5.55;;;2.30;;
52170;SDS011;38689;47.552;18.820;2023-06-01T10:33:00;4.87;;;2.55;;
52170;SDS011;38689;47.552;18.820;2023-06-01T10:40:33;4.55;;;2.40;;
52170;SDS011;38689;47.552;18.820;2023-06-01T10:42:59;5.20;;;2.62;;
52170;SDS011;38689;47.552;18.820;2023-06-01T10:48:11;5.47;;;2.65;;
52170;SDS011;38689;47.552;18.820;2023-06-01T10:50:41;5.60;;;2.58;;
52170;SDS011;38689;47.552;18.820;2023-06-01T11:01:34;6.50;;;2.60;;
52170;SDS011;38689;47.552;18.820;2023-06-01T11:04:01;6.12;;;2.60;;
52170;SDS011;38689;47.552;18.820;2023-06-01T11:09:06;4.87;;;2.20;;
52170;SDS011;38689;47.552;18.820;2023-06-01T11:14:27;8.40;;;2.50;;
52170;SDS011;38689;47.552;18.820;2023-06-01T11:17:44;4.60;;;2.60;;
52170;SDS011;38689;47.552;18.820;2023-06-01T11:19:57;7.70;;;2.55;;
52170;SDS011;38689;47.552;18.820;2023-06-01T11:22:24;4.07;;;2.17;;
52170;SDS011;38689;47.552;18.820;2023-06-01T11:24:51;4.93;;;2.95;;
52170;SDS011;38689;47.552;18.820;2023-06-01T11:27:19;4.78;;;2.72;;
52170;SDS011;38689;47.552;18.820;2023-06-01T11:29:48;9.05;;;2.80;;
52170;SDS011;38689;47.552;18.820;2023-06-01T11:32:14;5.40;;;2.60;;
52170;SDS011;38689;47.552;18.820;2023-06-01T11:34:41;5.28;;;2.40;;
52170;SDS011;38689;47.552;18.820;2023-06-01T11:37:13;5.18;;;2.75;;
52170;SDS011;38689;47.552;18.820;2023-06-01T11:39:45;5.85;;;2.33;;
52170;SDS011;38689;47.552;18.820;2023-06-01T11:42:13;4.15;;;2.30;;
52170;SDS011;38689;47.552;18.820;2023-06-01T11:44:41;5.47;;;2.40;;
52170;SDS011;38689;47.552;18.820;2023-06-01T11:47:09;14.87;;;2.60;;
52170;SDS011;38689;47.552;18.820;2023-06-01T11:49:43;4.10;;;2.45;;
52170;SDS011;38689;47.552;18.820;2023-06-01T11:52:12;5.30;;;2.40;;
52170;SDS011;38689;47.552;18.820;2023-06-01T11:54:39;5.68;;;2.70;;
52170;SDS011;38689;47.552;18.820;2023-06-01T11:57:06;3.37;;;2.45;;
52170;SDS011;38689;47.552;18.820;2023-06-01T11:59:39;4.43;;;2.62;;
52170;SDS011;38689;47.552;18.820;2023-06-01T12:04:53;5.57;;;2.30;;
52170;SDS011;38689;47.552;18.820;2023-06-01T12:07:20;6.40;;;2.65;;
52170;SDS011;38689;47.552;18.820;2023-06-01T12:09:46;7.57;;;2.70;;
52170;SDS011;38689;47.552;18.820;2023-06-01T12:12:13;7.15;;;2.42;;
52170;SDS011;38689;47.552;18.820;2023-06-01T12:14:39;5.93;;;2.83;;
52170;SDS011;38689;47.552;18.820;2023-06-01T12:17:07;4.45;;;2.80;;
52170;SDS011;38689;47.552;18.820;2023-06-01T12:19:33;4.55;;;2.53;;
52170;SDS011;38689;47.552;18.820;2023-06-01T12:22:11;4.72;;;2.72;;
52170;SDS011;38689;47.552;18.820;2023-06-01T12:24:37;5.40;;;2.60;;
52170;SDS011;38689;47.552;18.820;2023-06-01T12:27:11;6.20;;;2.75;;
52170;SDS011;38689;47.552;18.820;2023-06-01T12:29:43;5.85;;;2.40;;
52170;SDS011;38689;47.552;18.820;2023-06-01T12:32:39;7.22;;;2.90;;
52170;SDS011;38689;47.552;18.820;2023-06-01T12:35:06;4.90;;;2.72;;
52170;SDS011;38689;47.552;18.820;2023-06-01T12:37:33;6.50;;;2.72;;
52170;SDS011;38689;47.552;18.820;2023-06-01T12:40:00;5.80;;;2.70;;
52170;SDS011;38689;47.552;18.820;2023-06-01T12:42:36;5.20;;;2.70;;
52170;SDS011;38689;47.552;18.820;2023-06-01T12:45:03;5.47;;;2.87;;
52170;SDS011;38689;47.552;18.820;2023-06-01T12:47:36;7.55;;;2.58;;
52170;SDS011;38689;47.552;18.820;2023-06-01T12:50:05;5.43;;;2.60;;
52170;SDS011;38689;47.552;18.820;2023-06-01T12:52:34;8.25;;;2.85;;
52170;SDS011;38689;47.552;18.820;2023-06-01T12:55:01;7.40;;;2.80;;
52170;SDS011;38689;47.552;18.820;2023-06-01T12:57:30;5.15;;;2.55;;
52170;SDS011;38689;47.552;18.820;2023-06-01T12:59:56;4.37;;;2.70;;
52170;SDS011;38689;47.552;18.820;2023-06-01T13:02:23;4.30;;;2.50;;
52170;SDS011;38689;47.552;18.820;2023-06-01T13:04:49;4.60;;;2.62;;
52170;SDS011;38689;47.552;18.820;2023-06-01T13:07:16;5.35;;;3.00;;
52170;SDS011;38689;47.552;18.820;2023-06-01T13:09:43;4.00;;;2.75;;
52170;SDS011;38689;47.552;18.820;2023-06-01T13:12:09;4.25;;;2.55;;
52170;SDS011;38689;47.552;18.820;2023-06-01T13:14:36;5.28;;;2.60;;
52170;SDS011;38689;47.552;18.820;2023-06-01T13:17:02;7.37;;;2.80;;
52170;SDS011;38689;47.552;18.820;2023-06-01T13:19:29;4.28;;;2.60;;
52170;SDS011;38689;47.552;18.820;2023-06-01T13:21:55;5.22;;;2.53;;
52170;SDS011;38689;47.552;18.820;2023-06-01T13:24:21;13.77;;;2.78;;
52170;SDS011;38689;47.552;18.820;2023-06-01T13:26:47;5.62;;;2.50;;
52170;SDS011;38689;47.552;18.820;2023-06-01T13:29:13;5.85;;;2.78;;
52170;SDS011;38689;47.552;18.820;2023-06-01T13:31:40;5.50;;;2.55;;
52170;SDS011;38689;47.552;18.820;2023-06-01T13:34:06;6.40;;;2.30;;
52170;SDS011;38689;47.552;18.820;2023-06-01T13:36:33;5.47;;;2.85;;
52170;SDS011;38689;47.552;18.820;2023-06-01T13:39:00;6.90;;;2.72;;
52170;SDS011;38689;47.552;18.820;2023-06-01T13:41:28;5.90;;;2.85;;
52170;SDS011;38689;47.552;18.820;2023-06-01T13:43:54;6.28;;;2.90;;
52170;SDS011;38689;47.552;18.820;2023-06-01T13:46:20;4.82;;;2.72;;
52170;SDS011;38689;47.552;18.820;2023-06-01T13:48:47;5.18;;;3.22;;
52170;SDS011;38689;47.552;18.820;2023-06-01T13:51:13;6.95;;;3.75;;
52170;SDS011;38689;47.552;18.820;2023-06-01T13:53:40;14.35;;;4.07;;
52170;SDS011;38689;47.552;18.820;2023-06-01T13:56:06;8.77;;;3.50;;
52170;SDS011;38689;47.552;18.820;2023-06-01T13:58:32;7.32;;;3.80;;
52170;SDS011;38689;47.552;18.820;2023-06-01T14:00:59;7.43;;;3.95;;
52170;SDS011;38689;47.552;18.820;2023-06-01T14:03:25;8.93;;;3.70;;
52170;SDS011;38689;47.552;18.820;2023-06-01T14:05:51;6.00;;;3.50;;
52170;SDS011;38689;47.552;18.820;2023-06-01T14:08:17;4.85;;;3.47;;
52170;SDS011;38689;47.552;18.820;2023-06-01T14:10:43;5.05;;;3.42;;
52170;SDS011;38689;47.552;18.820;2023-06-01T14:13:09;7.40;;;4.00;;
52170;SDS011;38689;47.552;18.820;2023-06-01T14:15:36;6.60;;;4.10;;
52170;SDS011;38689;47.552;18.820;2023-06-01T14:18:02;6.05;;;3.85;;
52170;SDS011;38689;47.552;18.820;2023-06-01T14:20:28;6.30;;;3.97;;
52170;SDS011;38689;47.552;18.820;2023-06-01T14:22:55;5.97;;;3.75;;
52170;SDS011;38689;47.552;18.820;2023-06-01T14:25:21;8.15;;;4.07;;
52170;SDS011;38689;47.552;18.820;2023-06-01T14:27:47;9.77;;;3.62;;
52170;SDS011;38689;47.552;18.820;2023-06-01T14:30:13;17.33;;;4.25;;
52170;SDS011;38689;47.552;18.820;2023-06-01T14:32:40;7.12;;;3.75;;
52170;SDS011;38689;47.552;18.820;2023-06-01T14:35:09;5.82;;;3.75;;
52170;SDS011;38689;47.552;18.820;2023-06-01T14:37:35;7.15;;;3.85;;
52170;SDS011;38689;47.552;18.820;2023-06-01T14:40:01;10.45;;;4.25;;
52170;SDS011;38689;47.552;18.820;2023-06-01T14:42:29;5.05;;;3.62;;
52170;SDS011;38689;47.552;18.820;2023-06-01T14:44:55;7.32;;;4.18;;
52170;SDS011;38689;47.552;18.820;2023-06-01T14:47:21;7.62;;;4.32;;
52170;SDS011;38689;47.552;18.820;2023-06-01T14:49:47;5.57;;;3.40;;
52170;SDS011;38689;47.552;18.820;2023-06-01T14:52:13;5.95;;;3.72;;
52170;SDS011;38689;47.552;18.820;2023-06-01T14:54:39;7.45;;;3.80;;
52170;SDS011;38689;47.552;18.820;2023-06-01T14:57:05;7.45;;;4.00;;
52170;SDS011;38689;47.552;18.820;2023-06-01T14:59:32;9.73;;;4.00;;
52170;SDS011;38689;47.552;18.820;2023-06-01T15:02:02;6.93;;;3.80;;
52170;SDS011;38689;47.552;18.820;2023-06-01T15:04:29;5.93;;;3.50;;
52170;SDS011;38689;47.552;18.820;2023-06-01T15:06:55;6.95;;;3.80;;
52170;SDS011;38689;47.552;18.820;2023-06-01T15:09:21;7.68;;;3.58;;
52170;SDS011;38689;47.552;18.820;2023-06-01T15:11:47;4.90;;;3.40;;
52170;SDS011;38689;47.552;18.820;2023-06-01T15:14:13;11.73;;;3.85;;